Time;durP1;ratioP1;P1;durP2;ratioP2;P2;SDS_P1;SDS_P2;PMS_P1;PMS_P2;Temp;Humidity;BMP_temperature;BMP_pressure;BME280_temperature;BME280_humidity;BME280_pressure;Samples;Min_cycle;Max_cycle;Signal;HPM_P1;HPM_P2
2021/04/20 00:03:36;;;;;;;36.85;21.10;;;;;;;5.39;62.48;99419.03;467017;1174;116706;-66
2021/04/20 00:13:41;;;;;;;38.30;21.70;;;;;;;5.08;63.07;99409.15;466299;1173;116061;-65
2021/04/20 00:23:45;;;;;;;32.40;21.73;;;;;;;4.87;63.89;99420.44;467499;1174;116966;-68
2021/04/20 00:33:49;;;;;;;29.70;20.20;;;;;;;4.77;64.21;99414.77;467436;1173;115363;-66
2021/04/20 00:43:52;;;;;;;41.50;19.47;;;;;;;4.80;64.56;99411.20;467090;1172;119478;-66
2021/04/20 00:53:56;;;;;;;38.85;19.90;;;;;;;5.04;65.30;99400.63;467887;1174;115897;-68
2021/04/20 01:04:00;;;;;;;37.77;21.63;;;;;;;5.20;64.62;99395.59;467702;1174;118042;-68
2021/04/20 01:14:05;;;;;;;29.13;21.33;;;;;;;5.30;65.00;99386.45;467560;1174;116305;-66
2021/04/20 01:24:23;;;;;;;37.73;24.90;;;;;;;5.12;65.23;99395.08;467287;1174;116297;-69
2021/04/20 01:34:28;;;;;;;52.30;25.75;;;;;;;4.90;65.45;99389.08;467849;1174;115630;-65
2021/04/20 01:44:31;;;;;;;32.40;22.00;;;;;;;4.60;65.86;99379.08;467067;1174;115995;-66
2021/04/20 01:54:35;;;;;;;53.23;23.50;;;;;;;4.43;66.60;99392.79;466567;1174;117045;-67
2021/04/20 02:04:39;;;;;;;42.50;24.10;;;;;;;4.37;67.14;99389.61;467495;1173;116531;-67
2021/04/20 02:14:42;;;;;;;35.67;24.43;;;;;;;4.37;67.34;99392.20;467294;1173;116207;-67
2021/04/20 02:24:46;;;;;;;53.57;28.30;;;;;;;4.47;68.24;99383.97;466413;1174;116406;-66
2021/04/20 02:34:51;;;;;;;46.80;28.30;;;;;;;4.69;67.51;99390.86;467033;1174;116043;-66
2021/04/20 02:44:55;;;;;;;43.50;22.25;;;;;;;4.96;67.88;99393.16;467275;1174;115867;-66
2021/04/20 02:54:59;;;;;;;45.85;24.15;;;;;;;5.59;66.93;99383.41;466932;1175;116337;-66
2021/04/20 03:05:03;;;;;;;12.07;8.40;;;;;;;6.09;66.30;99386.30;466986;1176;117907;-67
2021/04/20 03:15:11;;;;;;;6.50;5.60;;;;;;;7.53;64.73;99396.38;467193;1175;116169;-68
2021/04/20 03:25:24;;;;;;;6.40;4.67;;;;;;;7.81;63.67;99355.63;467396;1173;115091;-69
2021/04/20 03:35:35;;;;;;;5.47;4.47;;;;;;;7.55;65.33;99353.54;467398;1174;115308;-68
2021/04/20 03:45:49;;;;;;;7.03;5.53;;;;;;;7.38;66.13;99349.24;466599;1172;115822;-68
2021/04/20 03:55:55;;;;;;;8.65;6.60;;;;;;;7.41;66.93;99353.46;467452;1174;116773;-69
2021/04/20 04:06:00;;;;;;;11.20;8.85;;;;;;;7.61;66.26;99367.20;467279;1174;115585;-68
2021/04/20 04:16:06;;;;;;;12.73;9.50;;;;;;;7.73;64.69;99363.91;466734;1174;115824;-69
2021/04/20 04:26:14;;;;;;;10.33;8.63;;;;;;;7.95;64.17;99373.16;467751;1174;116015;-67
2021/04/20 04:36:18;;;;;;;;;;;;;;;8.25;63.29;99378.41;467312;1173;115895;-67
2021/04/20 04:46:22;;;;;;;16.33;11.40;;;;;;;8.68;62.61;99375.06;468451;1174;102640;-67
2021/04/20 04:56:27;;;;;;;12.77;10.43;;;;;;;9.10;61.78;99382.20;468064;1174;116712;-69
2021/04/20 05:06:34;;;;;;;10.50;9.00;;;;;;;9.76;60.83;99385.09;467113;1173;117156;-70
2021/04/20 05:16:39;;;;;;;13.67;10.27;;;;;;;10.84;58.63;99378.08;467692;1174;116873;-69
2021/04/20 05:26:42;;;;;;;12.27;10.10;;;;;;;10.43;58.36;99377.31;467998;1174;116498;-67
2021/04/20 05:36:47;;;;;;;13.68;11.60;;;;;;;10.87;57.47;99383.14;466967;1174;116217;-66
2021/04/20 05:46:51;;;;;;;12.87;10.43;;;;;;;11.67;56.42;99381.11;467672;1174;116509;-69
2021/04/20 05:56:55;;;;;;;11.47;9.77;;;;;;;12.16;55.09;99385.44;468449;1174;116507;-71
2021/04/20 06:06:59;;;;;;;11.33;9.97;;;;;;;12.50;53.86;99389.95;467258;1174;116166;-70
2021/04/20 06:17:03;;;;;;;11.70;10.27;;;;;;;16.18;51.43;99381.89;475619;1173;116281;-66
2021/04/20 06:27:08;;;;;;;10.67;8.97;;;;;;;18.32;46.98;99366.14;468071;1174;116136;-69
2021/04/20 06:37:13;;;;;;;10.20;8.83;;;;;;;26.46;42.66;99358.08;468215;1174;116457;-66
2021/04/20 06:47:20;;;;;;;9.00;7.75;;;;;;;31.53;34.38;99357.71;467749;1176;116555;-69
2021/04/20 06:57:33;;;;;;;7.87;7.07;;;;;;;28.96;32.21;99360.22;468267;1174;116509;-68
2021/04/20 07:07:53;;;;;;;7.33;5.63;;;;;;;28.82;30.86;99356.02;468253;1174;115412;-61
2021/04/20 07:18:27;;;;;;;3.47;2.93;;;;;;;31.50;27.58;99363.63;467434;1174;116270;-59
2021/04/20 07:28:45;;;;;;;5.07;3.83;;;;;;;33.64;26.32;99341.98;467668;1174;116642;-59
2021/04/20 07:38:56;;;;;;;3.97;3.40;;;;;;;38.92;23.11;99336.13;468042;1174;116815;-61
2021/04/20 07:49:06;;;;;;;6.60;4.15;;;;;;;41.93;21.08;99328.59;467399;1174;116406;-60
2021/04/20 07:59:16;;;;;;;12.03;5.28;;;;;;;44.14;19.29;99318.66;467253;1174;116033;-62
2021/04/20 08:09:26;;;;;;;5.97;4.43;;;;;;;45.27;17.39;99317.52;467105;1174;116797;-59
2021/04/20 08:19:37;;;;;;;4.00;2.85;;;;;;;43.04;16.07;99301.23;468190;1174;115679;-63
2021/04/20 08:29:45;;;;;;;2.90;1.90;;;;;;;30.83;16.59;99305.35;444323;1174;10113530;-62
2021/04/20 08:39:58;;;;;;;3.40;2.80;;;;;;;25.04;19.17;99300.53;466850;1174;117300;-62
2021/04/20 08:50:09;;;;;;;2.60;2.03;;;;;;;22.72;20.89;99304.98;467315;1174;116214;-62
2021/04/20 09:00:22;;;;;;;2.70;2.20;;;;;;;21.41;22.60;99301.39;466864;1174;116440;-62
2021/04/20 09:10:56;;;;;;;4.73;2.03;;;;;;;20.71;22.95;99311.02;472075;1171;118608;-62
2021/04/20 09:21:05;;;;;;;2.90;1.87;;;;;;;19.65;24.29;99297.58;467940;1174;116138;-62
2021/04/20 09:31:15;;;;;;;3.15;2.00;;;;;;;19.36;24.82;99293.55;467774;1174;116196;-62
2021/04/20 09:41:28;;;;;;;2.73;1.90;;;;;;;19.54;25.39;99282.77;470029;1173;119637;-63
2021/04/20 09:51:49;;;;;;;4.20;2.43;;;;;;;19.22;26.00;99282.54;466293;1174;10001600;-63
2021/04/20 10:02:09;;;;;;;2.80;1.90;;;;;;;18.56;25.94;99290.21;480853;1174;116100;-61
2021/04/20 10:12:45;;;;;;;5.03;3.03;;;;;;;19.11;25.95;99270.35;482838;1173;116283;-63
2021/04/20 10:22:58;;;;;;;2.27;1.90;;;;;;;18.69;25.94;99268.48;472630;1174;115931;-62
2021/04/20 10:33:03;;;;;;;2.43;2.23;;;;;;;17.88;25.96;99261.49;474059;1174;116440;-62
2021/04/20 10:43:10;;;;;;;3.18;2.25;;;;;;;18.06;26.66;99261.48;470599;1174;117449;-62
2021/04/20 10:53:21;;;;;;;3.15;2.15;;;;;;;17.49;26.17;99256.52;475332;1174;116414;-60
2021/04/20 11:03:28;;;;;;;3.30;2.73;;;;;;;17.81;26.16;99247.15;475502;1174;116861;-62
2021/04/20 11:13:36;;;;;;;2.80;2.60;;;;;;;18.06;26.52;99232.27;471644;1174;116705;-61
2021/04/20 11:23:49;;;;;;;2.70;2.23;;;;;;;18.33;26.23;99222.45;476799;1174;116853;-63
2021/04/20 11:33:59;;;;;;;1.90;1.80;;;;;;;19.07;26.58;99205.16;483317;1174;179178;-63
2021/04/20 11:44:06;;;;;;;2.37;2.17;;;;;;;18.81;26.23;99211.36;479257;1174;116251;-61
2021/04/20 11:54:17;;;;;;;3.80;2.77;;;;;;;18.23;26.74;99200.47;479674;1174;115676;-60
2021/04/20 12:04:26;;;;;;;3.75;2.78;;;;;;;18.02;27.26;99196.36;480086;1174;117004;-58
2021/04/20 12:14:35;;;;;;;4.03;2.60;;;;;;;18.11;28.16;99196.42;476642;1174;117008;-59
2021/04/20 12:24:42;;;;;;;2.60;2.40;;;;;;;17.94;27.98;99185.67;478948;1174;116672;-58
2021/04/20 12:34:52;;;;;;;3.17;2.40;;;;;;;17.75;27.96;99174.25;479639;1174;116308;-59
2021/04/20 12:44:59;;;;;;;3.97;3.30;;;;;;;17.81;28.25;99164.83;477242;1174;117241;-57
2021/04/20 12:55:06;;;;;;;5.07;2.93;;;;;;;17.85;27.82;99157.39;483355;1174;116238;-68
2021/04/20 13:05:14;;;;;;;5.23;2.45;;;;;;;18.13;27.56;99149.30;477163;1173;116001;-64
2021/04/20 13:15:23;;;;;;;4.90;2.30;;;;;;;18.23;27.10;99143.86;474723;1174;115772;-64
2021/04/20 13:25:27;;;;;;;4.57;2.27;;;;;;;18.44;27.22;99133.65;468661;1174;115568;-65
2021/04/20 13:35:31;;;;;;;2.57;2.37;;;;;;;18.59;27.10;99128.55;482667;1173;116484;-66
2021/04/20 13:45:38;;;;;;;3.80;2.50;;;;;;;17.81;27.40;99132.97;473090;1174;115792;-69
2021/04/20 13:55:42;;;;;;;8.97;3.07;;;;;;;17.34;28.45;99124.35;483390;1174;116420;-67
2021/04/20 14:05:47;;;;;;;5.65;3.50;;;;;;;17.17;28.88;99112.77;473356;1174;116442;-66
2021/04/20 14:16:01;;;;;;;4.43;2.73;;;;;;;17.47;28.73;99112.50;483450;1174;116772;-66
2021/04/20 14:26:11;;;;;;;5.65;2.75;;;;;;;17.90;28.33;99102.00;482436;1174;116461;-67
2021/04/20 14:36:17;;;;;;;3.75;2.70;;;;;;;18.24;28.27;99098.53;478081;1174;116651;-66
2021/04/20 14:46:21;;;;;;;3.17;2.47;;;;;;;18.34;27.81;99095.73;483423;1174;116959;-66
2021/04/20 14:56:28;;;;;;;4.87;2.50;;;;;;;18.15;28.24;99094.17;480082;1174;117032;-66
2021/04/20 15:06:32;;;;;;;4.35;3.95;;;;;;;17.64;28.61;99090.40;473295;1174;116433;-66
2021/04/20 15:16:37;;;;;;;3.87;2.93;;;;;;;17.04;29.56;99096.41;463428;1174;20001933;-65
2021/04/20 15:26:45;;;;;;;3.33;3.10;;;;;;;16.72;32.72;99093.28;470388;1174;116539;-65
2021/04/20 15:37:00;;;;;;;3.40;3.10;;;;;;;16.37;34.07;99085.13;467500;1174;115463;-66
2021/04/20 15:47:07;;;;;;;6.90;3.83;;;;;;;15.97;34.71;99104.84;468545;1174;115781;-66
2021/04/20 15:57:13;;;;;;;6.10;4.97;;;;;;;15.74;35.49;99099.88;467654;1174;116319;-65
2021/04/20 16:07:25;;;;;;;5.38;4.53;;;;;;;15.42;36.05;99098.41;468107;1174;115795;-65
2021/04/20 16:17:31;;;;;;;9.25;5.20;;;;;;;14.93;36.94;99114.29;467629;1174;116327;-66
2021/04/20 16:27:39;;;;;;;7.50;4.80;;;;;;;14.45;37.97;99116.69;467733;1174;115892;-67
2021/04/20 16:37:53;;;;;;;8.48;5.00;;;;;;;14.01;38.67;99120.42;467939;1174;116476;-65
2021/04/20 16:48:08;;;;;;;7.20;6.10;;;;;;;13.66;39.21;99120.81;467927;1174;115927;-66
2021/04/20 16:58:29;;;;;;;9.27;5.77;;;;;;;13.36;39.58;99120.59;467548;1174;116088;-66
2021/04/20 17:08:45;;;;;;;9.50;5.35;;;;;;;13.18;40.73;99118.51;466949;1174;115488;-66
2021/04/20 17:19:08;;;;;;;6.83;4.87;;;;;;;13.04;41.33;99113.55;459002;1174;10001914;-66
2021/04/20 17:29:19;;;;;;;8.70;6.20;;;;;;;12.93;42.12;99114.44;483304;1174;116545;-64
2021/04/20 17:39:24;;;;;;;11.33;6.57;;;;;;;12.73;43.01;99119.52;483191;1174;116975;-64
2021/04/20 17:49:42;;;;;;;6.60;5.20;;;;;;;12.43;43.98;99117.55;483233;1174;117290;-65
2021/04/20 17:59:57;;;;;;;8.20;5.73;;;;;;;12.16;45.26;99121.38;482628;1174;116400;-67
2021/04/20 18:10:16;;;;;;;14.97;6.83;;;;;;;11.97;45.93;99129.84;462716;1174;10001777;-65
2021/04/20 18:20:30;;;;;;;9.10;5.97;;;;;;;11.61;47.34;99137.83;467958;1174;116120;-66
2021/04/20 18:30:45;;;;;;;12.70;8.33;;;;;;;11.16;48.33;99144.61;469511;1173;115950;-65
2021/04/20 18:41:03;;;;;;;16.05;8.55;;;;;;;10.77;49.36;99150.03;467490;1173;115540;-64
2021/04/20 18:51:16;;;;;;;20.77;11.60;;;;;;;10.37;51.14;99152.83;466838;1174;116360;-62
2021/04/20 19:01:29;;;;;;;13.67;9.23;;;;;;;10.01;51.94;99164.94;467434;1170;116133;-62
2021/04/20 19:11:42;;;;;;;17.90;10.00;;;;;;;9.74;53.10;99173.75;467578;1174;116379;-57
2021/04/20 19:22:01;;;;;;;16.17;12.63;;;;;;;9.53;53.83;99177.70;468112;1174;115998;-60
2021/04/20 19:32:13;;;;;;;22.05;12.90;;;;;;;9.33;54.33;99175.56;467251;1174;116465;-60
2021/04/20 19:42:25;;;;;;;22.10;13.90;;;;;;;9.17;54.93;99165.23;468335;1174;116448;-65
2021/04/20 19:52:38;;;;;;;22.43;14.63;;;;;;;9.05;55.78;99178.19;467862;1174;117142;-52
2021/04/20 20:02:43;;;;;;;21.23;15.03;;;;;;;9.03;56.17;99173.98;467806;1174;116643;-56
2021/04/20 20:12:49;;;;;;;21.43;15.00;;;;;;;9.08;56.31;99166.69;468338;1174;115901;-59
2021/04/20 20:22:54;;;;;;;20.55;15.40;;;;;;;9.07;56.87;99171.06;467686;1174;115922;-59
2021/04/20 20:33:01;;;;;;;23.40;15.50;;;;;;;9.09;56.97;99170.98;467837;1174;116149;-59
2021/04/20 20:43:09;;;;;;;22.30;15.40;;;;;;;9.08;57.38;99161.45;468015;1174;116449;-59
2021/04/20 20:53:13;;;;;;;19.13;16.33;;;;;;;8.92;58.16;99161.59;452163;1174;10001637;-60
2021/04/20 21:03:18;;;;;;;30.20;21.20;;;;;;;8.66;58.72;99154.45;481641;1174;116511;-59
2021/04/20 21:13:24;;;;;;;31.13;22.60;;;;;;;8.53;59.21;99151.75;483182;1174;116441;-59
2021/04/20 21:23:31;;;;;;;32.73;24.73;;;;;;;8.58;59.95;99150.64;482486;1174;117272;-59
2021/04/20 21:33:37;;;;;;;42.77;27.40;;;;;;;8.54;60.16;99149.98;483095;1174;116114;-57
2021/04/20 21:43:49;;;;;;;40.73;26.90;;;;;;;8.40;60.36;99149.05;483156;1174;116525;-58
2021/04/20 21:53:57;;;;;;;40.40;27.17;;;;;;;8.21;60.88;99136.27;482545;1174;117269;-52
2021/04/20 22:04:03;;;;;;;50.77;30.33;;;;;;;8.01;61.61;99140.09;483333;1174;115911;-53
2021/04/20 22:14:10;;;;;;;42.37;29.80;;;;;;;7.81;62.16;99139.53;483196;1173;117549;-55
2021/04/20 22:24:16;;;;;;;33.77;25.17;;;;;;;7.71;62.77;99136.61;482599;1173;116420;-50
2021/04/20 22:34:27;;;;;;;41.03;28.37;;;;;;;7.75;62.95;99142.50;483249;1170;116083;-50
2021/04/20 22:44:42;;;;;;;35.77;25.87;;;;;;;7.70;62.75;99136.72;482642;1174;116192;-53
2021/04/20 22:54:49;;;;;;;39.23;27.23;;;;;;;7.52;63.69;99149.92;483139;1174;116349;-54
2021/04/20 23:04:54;;;;;;;35.80;25.40;;;;;;;7.36;63.65;99141.31;483299;1174;116932;-50
2021/04/20 23:15:01;;;;;;;43.30;30.50;;;;;;;7.17;64.25;99129.30;482562;1174;117915;-52
2021/04/20 23:25:12;;;;;;;46.40;30.30;;;;;;;6.96;64.96;99132.20;483278;1174;116518;-53
2021/04/20 23:35:18;;;;;;;56.13;32.97;;;;;;;6.86;65.09;99129.28;483198;1174;117093;-53
2021/04/20 23:45:23;;;;;;;51.80;32.85;;;;;;;6.81;65.49;99126.11;482567;1173;116653;-52
2021/04/20 23:55:29;;;;;;;63.45;37.15;;;;;;;6.68;64.75;99125.94;483254;1175;116418;-53
